createdAt,value
2022-11-17T00:21:35.380Z,0.40
2022-11-17T00:24:32.312Z,0.93
2022-11-17T00:27:05.782Z,0.50
2022-11-17T00:29:39.188Z,0.50
2022-11-17T00:32:28.699Z,0.50
2022-11-17T00:34:58.575Z,0.50
2022-11-17T00:37:29.067Z,0.63
2022-11-17T00:40:01.035Z,0.57
2022-11-17T00:59:17.673Z,0.80
2022-11-17T01:01:47.599Z,0.50
2022-11-17T01:04:18.235Z,0.40
2022-11-17T01:06:49.402Z,0.90
2022-11-17T01:09:21.425Z,0.60
2022-11-17T01:11:52.024Z,0.95
2022-11-17T01:14:23.768Z,0.50
2022-11-17T01:16:54.069Z,0.43
2022-11-17T01:19:24.434Z,0.40
2022-11-17T01:28:15.690Z,0.50
2022-11-17T01:30:45.991Z,0.40
2022-11-17T01:33:16.853Z,0.50
2022-11-17T01:35:46.718Z,0.55
2022-11-17T01:38:16.620Z,0.68
2022-11-17T01:40:46.898Z,0.50
2022-11-17T01:43:17.254Z,0.57
2022-11-17T01:46:08.902Z,0.47
2022-11-17T01:49:17.094Z,0.60
2022-11-17T01:52:01.004Z,0.52
2022-11-17T01:54:32.943Z,0.45
2022-11-17T01:57:06.080Z,0.60
2022-11-17T01:59:38.272Z,0.40
2022-11-17T02:02:09.041Z,0.40
2022-11-17T02:04:42.448Z,0.50
2022-11-17T02:07:41.946Z,0.40
2022-11-17T02:10:12.940Z,0.70
2022-11-17T02:13:29.501Z,0.57
2022-11-17T02:16:00.241Z,0.50
2022-11-17T02:18:30.675Z,0.50
2022-11-17T02:21:14.831Z,0.50
2022-11-17T02:23:57.311Z,0.50
2022-11-17T02:26:33.769Z,0.50
2022-11-17T02:29:24.250Z,0.47
2022-11-17T02:31:57.391Z,0.60
2022-11-17T02:35:02.707Z,0.45
2022-11-17T02:37:35.652Z,0.40
2022-11-17T02:41:00.608Z,0.73
2022-11-17T02:43:53.361Z,0.50
2022-11-17T02:46:24.894Z,0.50
2022-11-17T02:48:58.032Z,0.40
2022-11-17T02:51:28.373Z,0.40
2022-11-17T02:54:00.873Z,0.40
2022-11-17T02:56:31.425Z,0.40
2022-11-17T02:59:04.176Z,0.40
2022-11-17T03:01:43.691Z,0.40
2022-11-17T03:04:19.957Z,0.50
2022-11-17T03:07:03.155Z,0.50
2022-11-17T03:09:42.570Z,0.40
2022-11-17T03:12:14.854Z,0.38
2022-11-17T03:14:54.974Z,0.50
2022-11-17T03:17:34.478Z,0.30
2022-11-17T03:20:18.310Z,0.40
2022-11-17T03:23:00.964Z,0.40
2022-11-17T03:25:33.684Z,0.40
2022-11-17T03:30:44.528Z,0.45
2022-11-17T03:33:16.895Z,0.50
2022-11-17T03:35:50.953Z,0.47
2022-11-17T07:41:09.108Z,0.50
2022-11-17T07:43:39.549Z,0.40
2022-11-17T07:46:15.718Z,0.50
2022-11-17T07:48:47.282Z,0.70
2022-11-17T07:51:18.827Z,0.60
2022-11-17T07:53:49.775Z,0.50
2022-11-17T07:56:20.064Z,0.40
2022-11-17T07:58:51.069Z,0.82
2022-11-17T08:01:21.751Z,0.40
2022-11-17T08:03:52.344Z,0.50
2022-11-17T08:06:23.122Z,0.40
2022-11-17T08:08:53.773Z,0.38
2022-11-17T08:11:24.620Z,0.35
2022-11-17T08:13:55.017Z,0.50
2022-11-17T08:16:25.974Z,0.40
2022-11-17T08:18:55.855Z,0.50
2022-11-17T08:21:27.357Z,0.40
2022-11-17T08:23:58.337Z,0.50
2022-11-17T08:26:28.282Z,0.40
2022-11-17T08:28:59.829Z,0.40
2022-11-17T08:31:29.986Z,0.40
2022-11-17T08:33:59.883Z,0.40
2022-11-17T08:36:30.212Z,0.50
2022-11-17T08:39:00.777Z,0.43
2022-11-17T08:41:31.729Z,0.50
2022-11-17T08:44:05.653Z,0.43
2022-11-17T08:46:37.640Z,0.60
2022-11-17T08:49:09.078Z,0.50
2022-11-17T08:51:39.918Z,0.50
2022-11-17T08:54:09.985Z,0.60
2022-11-17T08:56:40.923Z,0.40
2022-11-17T08:59:12.461Z,0.40
2022-11-17T09:01:45.387Z,0.50
2022-11-17T09:04:21.851Z,0.50
2022-11-17T09:06:51.842Z,0.43
2022-11-17T09:09:23.065Z,0.40
2022-11-17T09:11:53.028Z,0.60
2022-11-17T09:14:23.289Z,0.40
2022-11-17T09:16:53.281Z,0.40
2022-11-17T09:19:30.201Z,0.50
2022-11-17T09:22:02.193Z,0.57
2022-11-17T09:24:32.170Z,0.43
2022-11-17T09:27:05.014Z,0.50
2022-11-17T09:29:36.180Z,0.43
2022-11-17T09:32:06.169Z,0.40
2022-11-17T09:34:38.399Z,0.50
2022-11-17T09:37:08.388Z,0.50
2022-11-17T09:39:39.422Z,0.50
2022-11-17T09:42:10.819Z,0.43
2022-11-17T09:44:48.550Z,0.47
2022-11-17T09:47:44.450Z,0.40
2022-11-17T09:50:26.627Z,0.30
2022-11-17T09:53:14.821Z,0.40
2022-11-17T09:55:46.269Z,0.50
2022-11-17T09:58:28.989Z,0.40
2022-11-17T10:00:59.189Z,0.40
2022-11-17T10:03:44.947Z,0.40
2022-11-17T10:06:26.775Z,0.50
2022-11-17T10:08:57.097Z,0.40
2022-11-17T10:11:34.110Z,0.40
2022-11-17T10:14:13.839Z,0.50
2022-11-17T10:16:49.309Z,0.50
2022-11-17T10:19:21.227Z,0.40
2022-11-17T10:22:14.126Z,0.60
2022-11-17T10:24:46.571Z,0.40
2022-11-17T10:27:24.062Z,0.40
2022-11-17T10:30:05.894Z,0.57
2022-11-17T10:32:38.029Z,0.40
2022-11-17T10:35:18.855Z,0.60
2022-11-17T10:38:00.628Z,0.45
2022-11-17T10:40:32.700Z,0.30
2022-11-17T10:43:14.709Z,0.43
2022-11-17T10:45:48.286Z,0.57
2022-11-17T10:48:37.708Z,0.40
2022-11-17T10:51:21.498Z,0.50
2022-11-17T10:54:04.262Z,0.50
2022-11-17T10:56:35.968Z,0.60
2022-11-17T10:59:17.955Z,0.30
2022-11-17T11:01:50.892Z,0.38
2022-11-17T11:04:33.170Z,0.50
2022-11-17T11:07:10.714Z,0.40
2022-11-17T11:10:00.696Z,0.40
2022-11-17T11:12:40.107Z,0.50
2022-11-17T11:15:11.961Z,0.45
2022-11-17T11:17:42.372Z,0.40
2022-11-17T11:54:40.362Z,0.70
2022-11-17T11:57:14.535Z,0.80
2022-11-17T12:00:03.752Z,0.40
2022-11-17T12:02:34.519Z,0.50
2022-11-17T12:05:13.932Z,0.70
2022-11-17T12:07:44.205Z,0.60
2022-11-17T12:10:21.538Z,0.40
2022-11-17T12:12:52.139Z,0.60
2022-11-17T12:15:22.146Z,0.40
2022-11-17T12:17:54.991Z,1.02
2022-11-17T12:20:34.227Z,0.50
2022-11-17T12:23:22.301Z,0.55
2022-11-17T12:25:58.661Z,0.43
2022-11-17T12:28:41.939Z,0.40
2022-11-17T12:31:31.206Z,0.50
2022-11-17T12:34:03.811Z,0.60
2022-11-17T12:36:34.949Z,0.60
2022-11-17T12:39:06.259Z,0.73
2022-11-17T12:41:54.636Z,0.52
2022-11-17T12:44:37.486Z,0.73
2022-11-17T12:47:16.781Z,0.60
2022-11-17T12:50:05.016Z,0.65
2022-11-17T12:52:37.923Z,0.52
2022-11-17T12:55:16.976Z,0.40
2022-11-17T12:57:49.230Z,1.08
2022-11-17T13:00:24.923Z,1.42
2022-11-17T13:03:01.040Z,1.05
2022-11-17T13:08:13.717Z,1.35
2022-11-17T13:10:43.892Z,0.63
2022-11-17T13:13:15.095Z,0.82
2022-11-17T13:15:45.878Z,0.70
2022-11-17T13:18:41.564Z,0.50
2022-11-17T13:21:30.779Z,0.80
2022-11-17T13:24:02.104Z,0.50
2022-11-17T13:26:37.448Z,0.60
2022-11-17T13:29:15.244Z,0.40
2022-11-17T13:31:45.233Z,0.60
2022-11-17T13:34:25.765Z,0.50
2022-11-17T13:37:04.064Z,0.75
2022-11-17T13:39:34.557Z,0.60
2022-11-17T13:42:05.223Z,0.60
2022-11-17T13:44:35.553Z,0.60
2022-11-17T13:47:21.664Z,0.50
2022-11-17T13:49:51.669Z,0.60
2022-11-17T13:52:54.602Z,0.50
2022-11-17T13:58:15.341Z,0.77
2022-11-17T14:00:54.308Z,0.50
2022-11-17T14:03:34.515Z,0.40
2022-11-17T14:06:05.647Z,0.90
2022-11-17T14:08:36.194Z,0.40
2022-11-17T14:11:09.227Z,0.60
2022-11-17T14:13:44.310Z,0.40
2022-11-17T14:16:24.556Z,0.52
2022-11-17T14:19:03.493Z,0.50
2022-11-17T14:21:33.862Z,0.60
2022-11-17T14:24:08.222Z,0.50
2022-11-17T14:26:38.128Z,0.52
2022-11-17T14:29:08.444Z,0.50
2022-11-17T14:31:39.567Z,0.80
2022-11-17T14:34:09.874Z,0.40
2022-11-17T14:36:40.611Z,0.50
2022-11-17T14:39:18.275Z,0.35
2022-11-17T14:41:48.885Z,0.50
2022-11-17T14:44:19.082Z,0.47
2022-11-17T14:46:49.372Z,0.82
2022-11-17T14:49:19.769Z,0.40
2022-11-17T14:51:53.933Z,1.25
2022-11-17T14:54:23.868Z,0.40
2022-11-17T14:56:53.756Z,0.70
2022-11-17T15:02:09.691Z,0.57
2022-11-17T15:04:51.087Z,1.02
2022-11-17T15:07:21.537Z,0.43
2022-11-17T15:09:52.489Z,0.50
2022-11-17T15:12:22.643Z,0.43
2022-11-17T15:14:52.691Z,0.60
2022-11-17T15:17:23.047Z,0.63
2022-11-17T15:19:54.437Z,0.45
2022-11-17T15:22:24.426Z,0.50
2022-11-17T15:24:55.557Z,0.50
2022-11-17T15:27:25.487Z,0.70
2022-11-17T15:29:55.566Z,0.50
2022-11-17T15:32:25.584Z,0.80
2022-11-17T15:34:55.905Z,0.77
2022-11-17T15:37:25.794Z,0.52
2022-11-17T15:39:55.689Z,0.60
2022-11-17T15:42:25.571Z,0.65
2022-11-17T15:44:55.872Z,0.70
2022-11-17T15:47:25.894Z,0.52
2022-11-17T15:50:00.007Z,0.70
2022-11-17T15:52:56.595Z,0.80
2022-11-17T15:55:19.813Z,0.70
2022-11-17T15:57:49.737Z,1.05
2022-11-17T16:06:17.885Z,0.65
2022-11-17T16:08:47.817Z,0.60
2022-11-17T16:11:17.824Z,0.90
2022-11-17T16:13:47.762Z,0.80
2022-11-17T16:16:18.285Z,0.60
2022-11-17T16:18:48.196Z,0.80
2022-11-17T16:21:19.001Z,0.80
2022-11-17T16:23:49.962Z,0.77
2022-11-17T16:26:22.251Z,0.75
2022-11-17T16:28:52.488Z,1.23
2022-11-17T16:31:28.263Z,1.13
2022-11-17T16:33:59.955Z,0.82
2022-11-17T16:36:35.865Z,0.90
2022-11-17T16:39:07.280Z,0.90
2022-11-17T16:41:38.357Z,0.90
2022-11-17T16:44:16.320Z,1.10
2022-11-17T16:46:49.919Z,0.73
2022-11-17T16:49:21.113Z,0.80
2022-11-17T16:51:52.000Z,1.00
2022-11-17T16:54:22.327Z,0.77
2022-11-17T16:56:52.313Z,0.60
2022-11-17T16:59:22.222Z,0.70
2022-11-17T17:01:52.176Z,0.70
2022-11-17T17:04:22.051Z,0.65
2022-11-17T17:06:52.346Z,0.82
2022-11-17T17:09:27.717Z,0.70
2022-11-17T17:11:58.475Z,0.80
2022-11-17T17:14:28.327Z,0.88
2022-11-17T17:16:58.344Z,0.85
2022-11-17T17:19:30.895Z,0.70
2022-11-17T17:22:00.877Z,0.98
2022-11-17T17:24:30.769Z,0.70
2022-11-17T17:27:00.678Z,0.60
2022-11-17T17:29:30.571Z,0.65
2022-11-17T17:32:00.453Z,0.80
2022-11-17T17:34:31.385Z,0.75
2022-11-17T17:37:01.270Z,1.02
2022-11-17T17:39:31.584Z,0.60
2022-11-17T17:42:01.488Z,0.70
2022-11-17T17:44:31.348Z,1.00
2022-11-17T17:47:01.220Z,1.00
2022-11-17T17:49:31.089Z,0.85
2022-11-17T17:52:00.973Z,0.75
2022-11-17T17:54:30.866Z,0.80
2022-11-17T17:57:00.753Z,0.82
2022-11-17T17:59:30.644Z,0.90
2022-11-17T18:02:00.548Z,0.80
2022-11-17T18:04:32.139Z,0.80
2022-11-17T18:07:03.107Z,0.70
2022-11-17T18:09:33.016Z,0.80
2022-11-17T18:12:04.034Z,0.80
2022-11-17T18:14:33.995Z,1.33
2022-11-17T18:20:19.680Z,0.90
2022-11-17T18:22:49.665Z,1.02
2022-11-17T18:25:20.755Z,0.90
2022-11-17T18:27:50.658Z,0.80
2022-11-17T18:30:20.783Z,1.10
2022-11-17T18:32:50.639Z,1.00
2022-11-17T18:35:20.497Z,1.65
2022-11-17T18:37:50.598Z,0.93
2022-11-17T18:40:20.899Z,1.00
2022-11-17T18:42:50.907Z,1.00
2022-11-17T18:45:20.767Z,0.90
2022-11-17T18:47:50.700Z,0.90
2022-11-17T18:50:21.636Z,1.00
2022-11-17T18:52:51.785Z,0.88
2022-11-17T18:55:23.287Z,0.90
2022-11-17T18:57:53.269Z,0.98
2022-11-17T19:00:24.387Z,1.15
2022-11-17T19:02:54.394Z,0.80
2022-11-17T19:05:24.297Z,0.95
2022-11-17T19:07:57.941Z,1.00
2022-11-17T19:10:27.814Z,1.80
2022-11-17T19:12:57.730Z,1.10
2022-11-17T19:15:28.764Z,1.20
2022-11-17T19:17:58.696Z,0.80
2022-11-17T19:23:14.484Z,1.23
2022-11-17T19:25:46.046Z,1.30
2022-11-17T19:28:16.089Z,1.10
2022-11-17T19:30:45.960Z,1.00
2022-11-17T19:33:16.388Z,1.13
2022-11-17T19:35:46.315Z,0.95
2022-11-17T19:38:16.322Z,1.50
2022-11-17T19:40:47.393Z,1.13
2022-11-17T19:43:21.169Z,0.98
2022-11-17T19:45:51.049Z,1.08
2022-11-17T19:48:21.984Z,1.10
2022-11-17T19:50:55.682Z,1.17
2022-11-17T19:53:26.221Z,1.40
2022-11-17T19:55:56.218Z,1.15
2022-11-17T19:58:26.577Z,1.88
2022-11-17T20:00:57.604Z,1.20
2022-11-17T20:03:27.495Z,1.17
2022-11-17T20:06:02.743Z,1.30
2022-11-17T20:08:33.095Z,1.30
2022-11-17T20:11:21.853Z,1.50
2022-11-17T20:13:52.062Z,1.10
2022-11-17T20:16:23.661Z,1.50
2022-11-17T20:18:55.096Z,1.20
2022-11-17T20:24:10.551Z,1.55
2022-11-17T20:26:43.522Z,1.77
2022-11-17T20:29:13.484Z,1.52
2022-11-17T20:31:44.078Z,1.10
2022-11-17T20:34:14.930Z,1.35
2022-11-17T20:36:44.867Z,1.55
2022-11-17T20:39:18.206Z,1.40
2022-11-17T20:41:48.280Z,1.20
2022-11-17T20:44:27.944Z,1.17
2022-11-17T20:46:58.497Z,1.00
2022-11-17T20:49:30.800Z,1.33
2022-11-17T20:52:01.894Z,1.27
2022-11-17T20:54:31.800Z,1.15
2022-11-17T20:57:01.781Z,1.40
2022-11-17T20:59:32.711Z,1.13
2022-11-17T21:02:02.588Z,1.20
2022-11-17T21:04:32.496Z,1.27
2022-11-17T21:07:02.412Z,1.40
2022-11-17T21:09:32.815Z,1.08
2022-11-17T21:12:02.833Z,1.00
2022-11-17T21:14:33.165Z,1.00
2022-11-17T21:17:03.174Z,0.70
2022-11-17T21:19:37.859Z,0.60
2022-11-17T21:22:08.780Z,0.80
2022-11-17T21:27:24.583Z,0.70
2022-11-17T21:29:54.720Z,0.60
2022-11-17T21:32:25.825Z,0.60
2022-11-17T21:34:57.079Z,0.60
2022-11-17T21:37:29.532Z,0.70
2022-11-17T21:39:59.908Z,0.60
2022-11-17T21:42:30.579Z,0.57
2022-11-17T21:45:01.474Z,0.40
2022-11-17T21:47:31.490Z,0.75
2022-11-17T21:50:01.812Z,0.50
2022-11-17T21:52:32.536Z,0.63
2022-11-17T21:55:02.511Z,0.50
2022-11-17T21:57:32.392Z,1.13
2022-11-17T22:00:03.328Z,0.60
2022-11-17T22:02:33.271Z,0.50
2022-11-17T22:05:04.462Z,0.60
2022-11-17T22:07:36.675Z,0.77
2022-11-17T22:10:09.270Z,0.82
2022-11-17T22:12:39.735Z,0.50
2022-11-17T22:15:11.836Z,0.60
2022-11-17T22:17:42.044Z,0.50
2022-11-17T22:20:12.680Z,0.50
2022-11-17T22:22:42.632Z,0.50
2022-11-17T22:25:43.166Z,0.50
2022-11-17T23:30:24.231Z,0.40
2022-11-17T23:32:57.168Z,1.02
2022-11-17T23:35:27.181Z,0.52
2022-11-17T23:37:57.031Z,0.50
2022-11-17T23:40:26.922Z,0.50
2022-11-17T23:43:12.135Z,0.40
2022-11-17T23:45:41.977Z,0.50
2022-11-17T23:48:11.925Z,0.50
2022-11-17T23:50:42.137Z,0.40
2022-11-17T23:53:12.403Z,0.50
2022-11-17T23:55:42.744Z,0.50
2022-11-17T23:58:13.869Z,0.30
